sensor_id;sensor_type;location;lat;lon;timestamp;P1;durP1;ratioP1;P2;durP2;ratioP2
14688;SDS011;7432;48.728;9.154;2022-08-21T00:00:40;5.43;;;4.93;;
14688;SDS011;7432;48.728;9.154;2022-08-21T00:03:07;5.47;;;4.97;;
14688;SDS011;7432;48.728;9.154;2022-08-21T00:05:37;5.83;;;5.23;;
14688;SDS011;7432;48.728;9.154;2022-08-21T00:08:05;5.27;;;4.77;;
14688;SDS011;7432;48.728;9.154;2022-08-21T00:10:32;5.00;;;4.60;;
14688;SDS011;7432;48.728;9.154;2022-08-21T00:13:00;5.17;;;4.67;;
14688;SDS011;7432;48.728;9.154;2022-08-21T00:15:29;4.90;;;4.50;;
14688;SDS011;7432;48.728;9.154;2022-08-21T00:17:57;5.83;;;4.67;;
14688;SDS011;7432;48.728;9.154;2022-08-21T00:20:24;5.70;;;5.13;;
14688;SDS011;7432;48.728;9.154;2022-08-21T00:22:50;5.53;;;4.90;;
14688;SDS011;7432;48.728;9.154;2022-08-21T00:25:17;5.40;;;5.00;;
14688;SDS011;7432;48.728;9.154;2022-08-21T00:27:45;5.20;;;4.60;;
14688;SDS011;7432;48.728;9.154;2022-08-21T00:30:14;4.87;;;4.43;;
14688;SDS011;7432;48.728;9.154;2022-08-21T00:32:42;5.17;;;4.57;;
14688;SDS011;7432;48.728;9.154;2022-08-21T00:35:11;7.00;;;5.17;;
14688;SDS011;7432;48.728;9.154;2022-08-21T00:37:39;5.40;;;4.90;;
14688;SDS011;7432;48.728;9.154;2022-08-21T00:40:07;6.13;;;4.80;;
14688;SDS011;7432;48.728;9.154;2022-08-21T00:42:36;6.27;;;5.10;;
14688;SDS011;7432;48.728;9.154;2022-08-21T00:45:03;4.90;;;4.50;;
14688;SDS011;7432;48.728;9.154;2022-08-21T00:47:32;5.27;;;4.77;;
14688;SDS011;7432;48.728;9.154;2022-08-21T00:49:59;5.33;;;4.77;;
14688;SDS011;7432;48.728;9.154;2022-08-21T00:52:27;5.73;;;5.10;;
14688;SDS011;7432;48.728;9.154;2022-08-21T00:54:55;4.80;;;4.40;;
14688;SDS011;7432;48.728;9.154;2022-08-21T00:57:26;5.43;;;4.93;;
14688;SDS011;7432;48.728;9.154;2022-08-21T00:59:56;4.83;;;4.43;;
14688;SDS011;7432;48.728;9.154;2022-08-21T01:02:26;5.10;;;4.70;;
14688;SDS011;7432;48.728;9.154;2022-08-21T01:04:54;5.43;;;4.90;;
14688;SDS011;7432;48.728;9.154;2022-08-21T01:07:22;4.97;;;4.37;;
14688;SDS011;7432;48.728;9.154;2022-08-21T01:09:49;5.20;;;4.80;;
14688;SDS011;7432;48.728;9.154;2022-08-21T01:12:16;5.10;;;4.70;;
14688;SDS011;7432;48.728;9.154;2022-08-21T01:14:43;5.80;;;5.17;;
14688;SDS011;7432;48.728;9.154;2022-08-21T01:17:11;4.83;;;4.50;;
14688;SDS011;7432;48.728;9.154;2022-08-21T01:19:40;5.80;;;5.30;;
14688;SDS011;7432;48.728;9.154;2022-08-21T01:22:08;4.97;;;4.57;;
14688;SDS011;7432;48.728;9.154;2022-08-21T01:24:35;5.80;;;5.30;;
14688;SDS011;7432;48.728;9.154;2022-08-21T01:27:02;5.27;;;4.87;;
14688;SDS011;7432;48.728;9.154;2022-08-21T01:29:30;5.33;;;4.83;;
14688;SDS011;7432;48.728;9.154;2022-08-21T01:32:03;4.90;;;4.57;;
14688;SDS011;7432;48.728;9.154;2022-08-21T01:34:32;5.63;;;5.13;;
14688;SDS011;7432;48.728;9.154;2022-08-21T01:37:00;7.73;;;4.73;;
14688;SDS011;7432;48.728;9.154;2022-08-21T01:39:27;5.37;;;4.97;;
14688;SDS011;7432;48.728;9.154;2022-08-21T01:41:54;5.30;;;4.90;;
14688;SDS011;7432;48.728;9.154;2022-08-21T01:44:21;5.40;;;4.90;;
14688;SDS011;7432;48.728;9.154;2022-08-21T01:46:48;5.23;;;4.80;;
14688;SDS011;7432;48.728;9.154;2022-08-21T01:49:15;5.43;;;5.00;;
14688;SDS011;7432;48.728;9.154;2022-08-21T01:51:42;5.23;;;4.83;;
14688;SDS011;7432;48.728;9.154;2022-08-21T01:54:09;5.73;;;5.00;;
14688;SDS011;7432;48.728;9.154;2022-08-21T01:56:38;5.33;;;4.87;;
14688;SDS011;7432;48.728;9.154;2022-08-21T01:59:06;5.50;;;5.10;;
14688;SDS011;7432;48.728;9.154;2022-08-21T02:01:33;5.20;;;4.70;;
14688;SDS011;7432;48.728;9.154;2022-08-21T02:03:59;6.07;;;4.93;;
14688;SDS011;7432;48.728;9.154;2022-08-21T02:06:26;5.53;;;5.07;;
14688;SDS011;7432;48.728;9.154;2022-08-21T02:08:53;5.70;;;5.03;;
14688;SDS011;7432;48.728;9.154;2022-08-21T02:11:20;5.60;;;5.10;;
14688;SDS011;7432;48.728;9.154;2022-08-21T02:13:48;5.00;;;4.60;;
14688;SDS011;7432;48.728;9.154;2022-08-21T02:16:14;5.80;;;5.30;;
14688;SDS011;7432;48.728;9.154;2022-08-21T02:18:42;5.47;;;4.97;;
14688;SDS011;7432;48.728;9.154;2022-08-21T02:21:08;6.13;;;5.53;;
14688;SDS011;7432;48.728;9.154;2022-08-21T02:23:35;5.80;;;5.30;;
14688;SDS011;7432;48.728;9.154;2022-08-21T02:26:02;5.47;;;4.97;;
14688;SDS011;7432;48.728;9.154;2022-08-21T02:28:31;6.73;;;5.30;;
14688;SDS011;7432;48.728;9.154;2022-08-21T02:30:59;6.70;;;5.30;;
14688;SDS011;7432;48.728;9.154;2022-08-21T02:33:26;6.07;;;5.57;;
14688;SDS011;7432;48.728;9.154;2022-08-21T02:35:53;6.00;;;5.40;;
14688;SDS011;7432;48.728;9.154;2022-08-21T02:38:21;5.00;;;4.60;;
14688;SDS011;7432;48.728;9.154;2022-08-21T02:40:50;6.00;;;5.40;;
14688;SDS011;7432;48.728;9.154;2022-08-21T02:43:17;6.80;;;5.13;;
14688;SDS011;7432;48.728;9.154;2022-08-21T02:45:46;5.30;;;4.90;;
14688;SDS011;7432;48.728;9.154;2022-08-21T02:48:15;5.77;;;5.23;;
14688;SDS011;7432;48.728;9.154;2022-08-21T02:50:46;6.53;;;5.17;;
14688;SDS011;7432;48.728;9.154;2022-08-21T02:53:14;5.90;;;5.40;;
14688;SDS011;7432;48.728;9.154;2022-08-21T02:55:42;6.07;;;5.43;;
14688;SDS011;7432;48.728;9.154;2022-08-21T02:58:09;6.30;;;5.70;;
14688;SDS011;7432;48.728;9.154;2022-08-21T03:00:37;5.83;;;5.23;;
14688;SDS011;7432;48.728;9.154;2022-08-21T03:03:04;5.50;;;5.10;;
14688;SDS011;7432;48.728;9.154;2022-08-21T03:05:33;5.50;;;4.93;;
14688;SDS011;7432;48.728;9.154;2022-08-21T03:08:02;5.33;;;4.87;;
14688;SDS011;7432;48.728;9.154;2022-08-21T03:10:35;5.93;;;5.43;;
14688;SDS011;7432;48.728;9.154;2022-08-21T03:13:02;7.57;;;5.00;;
14688;SDS011;7432;48.728;9.154;2022-08-21T03:15:29;5.93;;;5.27;;
14688;SDS011;7432;48.728;9.154;2022-08-21T03:17:56;7.03;;;5.57;;
14688;SDS011;7432;48.728;9.154;2022-08-21T03:20:23;7.83;;;5.70;;
14688;SDS011;7432;48.728;9.154;2022-08-21T03:22:54;5.90;;;5.40;;
14688;SDS011;7432;48.728;9.154;2022-08-21T03:25:20;5.63;;;5.13;;
14688;SDS011;7432;48.728;9.154;2022-08-21T03:27:47;5.50;;;5.10;;
14688;SDS011;7432;48.728;9.154;2022-08-21T03:30:14;6.93;;;5.67;;
14688;SDS011;7432;48.728;9.154;2022-08-21T03:32:42;6.17;;;5.60;;
14688;SDS011;7432;48.728;9.154;2022-08-21T03:35:09;7.90;;;6.30;;
14688;SDS011;7432;48.728;9.154;2022-08-21T03:37:36;6.07;;;5.37;;
14688;SDS011;7432;48.728;9.154;2022-08-21T03:40:04;6.10;;;5.23;;
14688;SDS011;7432;48.728;9.154;2022-08-21T03:42:32;6.07;;;5.47;;
14688;SDS011;7432;48.728;9.154;2022-08-21T03:44:58;7.27;;;5.73;;
14688;SDS011;7432;48.728;9.154;2022-08-21T03:47:25;5.53;;;5.13;;
14688;SDS011;7432;48.728;9.154;2022-08-21T03:49:52;6.07;;;5.03;;
14688;SDS011;7432;48.728;9.154;2022-08-21T03:52:19;6.50;;;5.13;;
14688;SDS011;7432;48.728;9.154;2022-08-21T03:54:46;6.10;;;4.87;;
14688;SDS011;7432;48.728;9.154;2022-08-21T03:57:13;6.37;;;5.60;;
14688;SDS011;7432;48.728;9.154;2022-08-21T03:59:40;5.43;;;5.00;;
14688;SDS011;7432;48.728;9.154;2022-08-21T04:02:07;5.50;;;5.00;;
14688;SDS011;7432;48.728;9.154;2022-08-21T04:04:34;5.33;;;4.83;;
14688;SDS011;7432;48.728;9.154;2022-08-21T04:07:01;6.10;;;5.17;;
14688;SDS011;7432;48.728;9.154;2022-08-21T04:09:29;6.00;;;5.20;;
14688;SDS011;7432;48.728;9.154;2022-08-21T04:11:56;5.53;;;5.13;;
14688;SDS011;7432;48.728;9.154;2022-08-21T04:14:25;5.13;;;4.70;;
14688;SDS011;7432;48.728;9.154;2022-08-21T04:16:52;6.10;;;5.50;;
14688;SDS011;7432;48.728;9.154;2022-08-21T04:19:19;6.07;;;5.30;;
14688;SDS011;7432;48.728;9.154;2022-08-21T04:21:45;5.77;;;5.17;;
14688;SDS011;7432;48.728;9.154;2022-08-21T04:24:11;5.27;;;4.83;;
14688;SDS011;7432;48.728;9.154;2022-08-21T04:26:38;6.27;;;5.67;;
14688;SDS011;7432;48.728;9.154;2022-08-21T04:29:05;8.03;;;5.47;;
14688;SDS011;7432;48.728;9.154;2022-08-21T04:31:34;5.43;;;4.90;;
14688;SDS011;7432;48.728;9.154;2022-08-21T04:34:03;5.10;;;4.73;;
14688;SDS011;7432;48.728;9.154;2022-08-21T04:36:30;5.80;;;5.30;;
14688;SDS011;7432;48.728;9.154;2022-08-21T04:38:56;5.70;;;4.97;;
14688;SDS011;7432;48.728;9.154;2022-08-21T04:41:23;5.97;;;5.47;;
14688;SDS011;7432;48.728;9.154;2022-08-21T04:43:50;5.60;;;4.93;;
14688;SDS011;7432;48.728;9.154;2022-08-21T04:46:17;5.97;;;5.03;;
14688;SDS011;7432;48.728;9.154;2022-08-21T04:48:45;5.40;;;4.77;;
14688;SDS011;7432;48.728;9.154;2022-08-21T04:51:13;5.10;;;4.70;;
14688;SDS011;7432;48.728;9.154;2022-08-21T04:53:45;5.50;;;5.10;;
14688;SDS011;7432;48.728;9.154;2022-08-21T04:56:17;5.17;;;4.67;;
14688;SDS011;7432;48.728;9.154;2022-08-21T04:58:46;5.33;;;4.83;;
14688;SDS011;7432;48.728;9.154;2022-08-21T05:01:15;5.17;;;4.77;;
14688;SDS011;7432;48.728;9.154;2022-08-21T05:03:46;6.40;;;5.50;;
14688;SDS011;7432;48.728;9.154;2022-08-21T05:06:15;6.67;;;5.23;;
14688;SDS011;7432;48.728;9.154;2022-08-21T05:08:42;5.60;;;5.20;;
14688;SDS011;7432;48.728;9.154;2022-08-21T05:11:11;5.77;;;5.27;;
14688;SDS011;7432;48.728;9.154;2022-08-21T05:13:38;7.67;;;5.60;;
14688;SDS011;7432;48.728;9.154;2022-08-21T05:16:05;5.20;;;4.80;;
14688;SDS011;7432;48.728;9.154;2022-08-21T05:18:32;5.53;;;5.07;;
14688;SDS011;7432;48.728;9.154;2022-08-21T05:21:00;5.37;;;4.97;;
14688;SDS011;7432;48.728;9.154;2022-08-21T05:23:26;6.10;;;5.50;;
14688;SDS011;7432;48.728;9.154;2022-08-21T05:25:52;5.63;;;5.13;;
14688;SDS011;7432;48.728;9.154;2022-08-21T05:28:20;5.77;;;5.27;;
14688;SDS011;7432;48.728;9.154;2022-08-21T05:30:46;5.97;;;5.47;;
14688;SDS011;7432;48.728;9.154;2022-08-21T05:33:13;5.80;;;5.30;;
14688;SDS011;7432;48.728;9.154;2022-08-21T05:35:39;6.00;;;5.40;;
14688;SDS011;7432;48.728;9.154;2022-08-21T05:38:08;6.53;;;5.70;;
14688;SDS011;7432;48.728;9.154;2022-08-21T05:40:35;6.33;;;5.20;;
14688;SDS011;7432;48.728;9.154;2022-08-21T05:43:02;6.13;;;5.63;;
14688;SDS011;7432;48.728;9.154;2022-08-21T05:45:29;5.43;;;4.93;;
14688;SDS011;7432;48.728;9.154;2022-08-21T05:48:04;5.37;;;4.83;;
14688;SDS011;7432;48.728;9.154;2022-08-21T05:50:31;5.27;;;4.77;;
14688;SDS011;7432;48.728;9.154;2022-08-21T05:52:58;7.13;;;5.50;;
14688;SDS011;7432;48.728;9.154;2022-08-21T05:55:26;6.53;;;4.90;;
14688;SDS011;7432;48.728;9.154;2022-08-21T05:57:52;6.00;;;4.97;;
14688;SDS011;7432;48.728;9.154;2022-08-21T06:00:19;5.57;;;5.13;;
14688;SDS011;7432;48.728;9.154;2022-08-21T06:02:48;5.63;;;5.13;;
14688;SDS011;7432;48.728;9.154;2022-08-21T06:05:15;6.70;;;4.83;;
14688;SDS011;7432;48.728;9.154;2022-08-21T06:07:42;5.47;;;4.90;;
14688;SDS011;7432;48.728;9.154;2022-08-21T06:10:09;7.07;;;5.40;;
14688;SDS011;7432;48.728;9.154;2022-08-21T06:12:37;5.77;;;5.20;;
14688;SDS011;7432;48.728;9.154;2022-08-21T06:15:04;5.60;;;5.10;;
14688;SDS011;7432;48.728;9.154;2022-08-21T06:17:31;5.60;;;5.10;;
14688;SDS011;7432;48.728;9.154;2022-08-21T06:19:58;5.90;;;5.43;;
14688;SDS011;7432;48.728;9.154;2022-08-21T06:22:24;5.40;;;5.00;;
14688;SDS011;7432;48.728;9.154;2022-08-21T06:24:50;6.93;;;5.40;;
14688;SDS011;7432;48.728;9.154;2022-08-21T06:27:17;5.43;;;5.00;;
14688;SDS011;7432;48.728;9.154;2022-08-21T06:29:45;7.07;;;5.80;;
14688;SDS011;7432;48.728;9.154;2022-08-21T06:32:11;5.47;;;4.97;;
14688;SDS011;7432;48.728;9.154;2022-08-21T06:34:39;5.55;;;5.05;;
14688;SDS011;7432;48.728;9.154;2022-08-21T06:37:06;5.90;;;5.40;;
14688;SDS011;7432;48.728;9.154;2022-08-21T06:39:33;5.60;;;5.20;;
14688;SDS011;7432;48.728;9.154;2022-08-21T06:41:59;5.78;;;5.28;;
14688;SDS011;7432;48.728;9.154;2022-08-21T06:44:26;6.00;;;5.60;;
14688;SDS011;7432;48.728;9.154;2022-08-21T06:46:54;6.03;;;5.53;;
14688;SDS011;7432;48.728;9.154;2022-08-21T06:49:20;6.07;;;5.53;;
14688;SDS011;7432;48.728;9.154;2022-08-21T06:51:47;6.20;;;5.70;;
14688;SDS011;7432;48.728;9.154;2022-08-21T06:54:13;5.88;;;5.38;;
14688;SDS011;7432;48.728;9.154;2022-08-21T06:56:40;6.22;;;5.72;;
14688;SDS011;7432;48.728;9.154;2022-08-21T06:59:06;6.25;;;5.72;;
14688;SDS011;7432;48.728;9.154;2022-08-21T07:01:33;6.10;;;5.60;;
14688;SDS011;7432;48.728;9.154;2022-08-21T07:04:00;6.45;;;5.95;;
14688;SDS011;7432;48.728;9.154;2022-08-21T07:06:27;7.00;;;6.40;;
14688;SDS011;7432;48.728;9.154;2022-08-21T07:08:53;6.82;;;6.10;;
14688;SDS011;7432;48.728;9.154;2022-08-21T07:11:20;6.22;;;5.70;;
14688;SDS011;7432;48.728;9.154;2022-08-21T07:13:49;6.13;;;5.40;;
14688;SDS011;7432;48.728;9.154;2022-08-21T07:16:17;6.78;;;6.18;;
14688;SDS011;7432;48.728;9.154;2022-08-21T07:18:44;6.80;;;6.20;;
14688;SDS011;7432;48.728;9.154;2022-08-21T07:21:12;6.25;;;5.65;;
14688;SDS011;7432;48.728;9.154;2022-08-21T07:23:39;6.70;;;6.10;;
14688;SDS011;7432;48.728;9.154;2022-08-21T07:26:08;7.03;;;5.90;;
14688;SDS011;7432;48.728;9.154;2022-08-21T07:28:35;6.68;;;6.07;;
14688;SDS011;7432;48.728;9.154;2022-08-21T07:31:02;6.47;;;5.97;;
14688;SDS011;7432;48.728;9.154;2022-08-21T07:33:30;7.40;;;6.70;;
14688;SDS011;7432;48.728;9.154;2022-08-21T07:35:57;7.57;;;6.88;;
14688;SDS011;7432;48.728;9.154;2022-08-21T07:38:25;6.95;;;6.32;;
14688;SDS011;7432;48.728;9.154;2022-08-21T07:40:53;6.85;;;6.15;;
14688;SDS011;7432;48.728;9.154;2022-08-21T07:43:23;7.93;;;6.82;;
14688;SDS011;7432;48.728;9.154;2022-08-21T07:45:50;7.00;;;6.32;;
14688;SDS011;7432;48.728;9.154;2022-08-21T07:48:18;6.72;;;6.22;;
14688;SDS011;7432;48.728;9.154;2022-08-21T07:50:44;7.35;;;6.72;;
14688;SDS011;7432;48.728;9.154;2022-08-21T07:53:11;7.40;;;6.80;;
14688;SDS011;7432;48.728;9.154;2022-08-21T07:55:39;6.55;;;5.95;;
14688;SDS011;7432;48.728;9.154;2022-08-21T07:58:05;7.28;;;6.10;;
14688;SDS011;7432;48.728;9.154;2022-08-21T08:00:32;7.50;;;6.32;;
14688;SDS011;7432;48.728;9.154;2022-08-21T08:02:58;7.07;;;6.40;;
14688;SDS011;7432;48.728;9.154;2022-08-21T08:05:26;7.05;;;6.43;;
14688;SDS011;7432;48.728;9.154;2022-08-21T08:07:55;7.07;;;6.47;;
14688;SDS011;7432;48.728;9.154;2022-08-21T08:10:22;7.47;;;6.25;;
14688;SDS011;7432;48.728;9.154;2022-08-21T08:12:51;6.75;;;6.25;;
14688;SDS011;7432;48.728;9.154;2022-08-21T08:15:20;6.40;;;5.90;;
14688;SDS011;7432;48.728;9.154;2022-08-21T08:17:48;6.80;;;6.20;;
14688;SDS011;7432;48.728;9.154;2022-08-21T08:20:15;6.45;;;5.85;;
14688;SDS011;7432;48.728;9.154;2022-08-21T08:22:43;6.63;;;6.10;;
14688;SDS011;7432;48.728;9.154;2022-08-21T08:25:12;6.95;;;6.28;;
14688;SDS011;7432;48.728;9.154;2022-08-21T08:27:39;7.00;;;6.30;;
14688;SDS011;7432;48.728;9.154;2022-08-21T08:30:09;6.82;;;6.07;;
14688;SDS011;7432;48.728;9.154;2022-08-21T08:32:38;6.30;;;5.80;;
14688;SDS011;7432;48.728;9.154;2022-08-21T08:35:06;7.28;;;6.32;;
14688;SDS011;7432;48.728;9.154;2022-08-21T08:37:33;6.53;;;5.93;;
14688;SDS011;7432;48.728;9.154;2022-08-21T08:40:03;6.20;;;5.72;;
14688;SDS011;7432;48.728;9.154;2022-08-21T08:42:30;6.40;;;5.90;;
14688;SDS011;7432;48.728;9.154;2022-08-21T08:44:59;8.95;;;5.90;;
14688;SDS011;7432;48.728;9.154;2022-08-21T08:47:31;6.72;;;6.20;;
14688;SDS011;7432;48.728;9.154;2022-08-21T08:50:02;6.30;;;5.80;;
14688;SDS011;7432;48.728;9.154;2022-08-21T08:52:31;6.72;;;6.13;;
14688;SDS011;7432;48.728;9.154;2022-08-21T08:55:02;6.20;;;5.70;;
14688;SDS011;7432;48.728;9.154;2022-08-21T08:57:30;5.80;;;5.40;;
14688;SDS011;7432;48.728;9.154;2022-08-21T08:59:59;5.88;;;5.38;;
14688;SDS011;7432;48.728;9.154;2022-08-21T09:02:27;6.70;;;6.10;;
14688;SDS011;7432;48.728;9.154;2022-08-21T09:04:55;6.10;;;5.60;;
14688;SDS011;7432;48.728;9.154;2022-08-21T09:07:25;7.05;;;6.35;;
14688;SDS011;7432;48.728;9.154;2022-08-21T09:10:05;6.47;;;5.88;;
14688;SDS011;7432;48.728;9.154;2022-08-21T09:12:44;8.27;;;5.75;;
14688;SDS011;7432;48.728;9.154;2022-08-21T09:15:20;6.88;;;6.10;;
14688;SDS011;7432;48.728;9.154;2022-08-21T09:18:05;6.55;;;5.70;;
14688;SDS011;7432;48.728;9.154;2022-08-21T09:20:47;6.65;;;6.05;;
14688;SDS011;7432;48.728;9.154;2022-08-21T09:23:23;6.28;;;5.78;;
14688;SDS011;7432;48.728;9.154;2022-08-21T09:25:59;6.35;;;5.75;;
14688;SDS011;7432;48.728;9.154;2022-08-21T09:28:32;6.05;;;5.50;;
14688;SDS011;7432;48.728;9.154;2022-08-21T09:31:01;7.07;;;5.85;;
14688;SDS011;7432;48.728;9.154;2022-08-21T09:33:31;6.60;;;6.10;;
14688;SDS011;7432;48.728;9.154;2022-08-21T09:35:59;6.22;;;5.72;;
14688;SDS011;7432;48.728;9.154;2022-08-21T09:38:27;6.45;;;5.95;;
14688;SDS011;7432;48.728;9.154;2022-08-21T09:40:58;6.85;;;6.05;;
14688;SDS011;7432;48.728;9.154;2022-08-21T09:43:26;6.50;;;5.78;;
14688;SDS011;7432;48.728;9.154;2022-08-21T09:46:01;6.93;;;6.40;;
14688;SDS011;7432;48.728;9.154;2022-08-21T09:48:30;7.25;;;6.05;;
14688;SDS011;7432;48.728;9.154;2022-08-21T09:51:11;6.18;;;5.68;;
14688;SDS011;7432;48.728;9.154;2022-08-21T09:53:39;6.45;;;5.95;;
14688;SDS011;7432;48.728;9.154;2022-08-21T09:56:21;6.57;;;6.07;;
14688;SDS011;7432;48.728;9.154;2022-08-21T09:59:14;6.35;;;5.70;;
14688;SDS011;7432;48.728;9.154;2022-08-21T10:01:43;6.47;;;5.85;;
14688;SDS011;7432;48.728;9.154;2022-08-21T10:04:11;6.18;;;5.68;;
14688;SDS011;7432;48.728;9.154;2022-08-21T10:06:40;6.80;;;6.10;;
14688;SDS011;7432;48.728;9.154;2022-08-21T10:09:08;6.10;;;5.63;;
14688;SDS011;7432;48.728;9.154;2022-08-21T10:11:36;6.82;;;6.28;;
14688;SDS011;7432;48.728;9.154;2022-08-21T10:14:07;6.63;;;6.13;;
14688;SDS011;7432;48.728;9.154;2022-08-21T10:16:46;6.72;;;6.13;;
14688;SDS011;7432;48.728;9.154;2022-08-21T10:19:22;6.72;;;6.13;;
14688;SDS011;7432;48.728;9.154;2022-08-21T10:21:59;6.97;;;6.40;;
14688;SDS011;7432;48.728;9.154;2022-08-21T10:24:33;7.53;;;6.93;;
14688;SDS011;7432;48.728;9.154;2022-08-21T10:27:07;7.63;;;7.03;;
14688;SDS011;7432;48.728;9.154;2022-08-21T10:29:47;7.55;;;6.78;;
14688;SDS011;7432;48.728;9.154;2022-08-21T10:32:24;7.65;;;6.80;;
14688;SDS011;7432;48.728;9.154;2022-08-21T10:35:08;7.07;;;6.38;;
14688;SDS011;7432;48.728;9.154;2022-08-21T10:37:45;7.50;;;6.80;;
14688;SDS011;7432;48.728;9.154;2022-08-21T10:40:24;6.80;;;6.30;;
14688;SDS011;7432;48.728;9.154;2022-08-21T10:42:58;9.73;;;6.65;;
14688;SDS011;7432;48.728;9.154;2022-08-21T10:45:32;7.22;;;6.65;;
14688;SDS011;7432;48.728;9.154;2022-08-21T10:48:14;6.82;;;6.22;;
14688;SDS011;7432;48.728;9.154;2022-08-21T10:50:48;7.03;;;6.43;;
14688;SDS011;7432;48.728;9.154;2022-08-21T10:53:22;7.13;;;6.50;;
14688;SDS011;7432;48.728;9.154;2022-08-21T10:56:10;7.68;;;7.07;;
14688;SDS011;7432;48.728;9.154;2022-08-21T10:58:43;7.40;;;6.72;;
14688;SDS011;7432;48.728;9.154;2022-08-21T11:01:16;8.15;;;7.43;;
14688;SDS011;7432;48.728;9.154;2022-08-21T11:03:50;7.47;;;6.78;;
14688;SDS011;7432;48.728;9.154;2022-08-21T11:06:20;7.43;;;6.75;;
14688;SDS011;7432;48.728;9.154;2022-08-21T11:08:51;6.30;;;5.80;;
14688;SDS011;7432;48.728;9.154;2022-08-21T11:11:22;6.80;;;6.30;;
14688;SDS011;7432;48.728;9.154;2022-08-21T11:13:53;7.65;;;6.40;;
14688;SDS011;7432;48.728;9.154;2022-08-21T11:16:25;6.45;;;5.95;;
14688;SDS011;7432;48.728;9.154;2022-08-21T11:19:00;6.70;;;6.05;;
14688;SDS011;7432;48.728;9.154;2022-08-21T11:21:35;7.13;;;6.43;;
14688;SDS011;7432;48.728;9.154;2022-08-21T11:24:14;6.97;;;6.47;;
14688;SDS011;7432;48.728;9.154;2022-08-21T11:26:47;6.95;;;6.32;;
14688;SDS011;7432;48.728;9.154;2022-08-21T11:29:19;6.90;;;6.30;;
14688;SDS011;7432;48.728;9.154;2022-08-21T11:31:53;7.28;;;6.63;;
14688;SDS011;7432;48.728;9.154;2022-08-21T11:34:33;7.30;;;6.70;;
14688;SDS011;7432;48.728;9.154;2022-08-21T11:37:11;8.40;;;7.28;;
14688;SDS011;7432;48.728;9.154;2022-08-21T11:39:49;7.20;;;6.65;;
14688;SDS011;7432;48.728;9.154;2022-08-21T11:42:24;7.22;;;6.50;;
14688;SDS011;7432;48.728;9.154;2022-08-21T11:44:56;7.95;;;6.95;;
14688;SDS011;7432;48.728;9.154;2022-08-21T11:47:38;8.57;;;7.70;;
14688;SDS011;7432;48.728;9.154;2022-08-21T11:50:16;8.15;;;7.45;;
14688;SDS011;7432;48.728;9.154;2022-08-21T11:52:44;8.18;;;7.60;;
14688;SDS011;7432;48.728;9.154;2022-08-21T11:55:22;8.80;;;7.90;;
14688;SDS011;7432;48.728;9.154;2022-08-21T11:57:55;8.52;;;7.70;;
14688;SDS011;7432;48.728;9.154;2022-08-21T12:00:28;8.40;;;7.60;;
14688;SDS011;7432;48.728;9.154;2022-08-21T12:03:06;8.70;;;7.40;;
14688;SDS011;7432;48.728;9.154;2022-08-21T12:05:38;8.15;;;7.45;;
14688;SDS011;7432;48.728;9.154;2022-08-21T12:08:09;8.40;;;7.70;;
14688;SDS011;7432;48.728;9.154;2022-08-21T12:10:41;8.02;;;7.43;;
14688;SDS011;7432;48.728;9.154;2022-08-21T12:13:21;8.80;;;7.88;;
14688;SDS011;7432;48.728;9.154;2022-08-21T12:15:50;8.57;;;7.72;;
14688;SDS011;7432;48.728;9.154;2022-08-21T12:18:23;8.25;;;7.55;;
14688;SDS011;7432;48.728;9.154;2022-08-21T12:21:00;9.10;;;7.53;;
14688;SDS011;7432;48.728;9.154;2022-08-21T12:23:30;8.07;;;7.38;;
14688;SDS011;7432;48.728;9.154;2022-08-21T12:26:01;7.63;;;7.03;;
14688;SDS011;7432;48.728;9.154;2022-08-21T12:28:45;8.05;;;7.22;;
14688;SDS011;7432;48.728;9.154;2022-08-21T12:31:22;8.15;;;7.45;;
14688;SDS011;7432;48.728;9.154;2022-08-21T12:33:51;9.02;;;7.40;;
14688;SDS011;7432;48.728;9.154;2022-08-21T12:36:21;8.27;;;7.60;;
14688;SDS011;7432;48.728;9.154;2022-08-21T12:38:52;8.13;;;7.43;;
14688;SDS011;7432;48.728;9.154;2022-08-21T12:41:24;15.57;;;13.98;;
14688;SDS011;7432;48.728;9.154;2022-08-21T12:43:56;8.77;;;7.97;;
14688;SDS011;7432;48.728;9.154;2022-08-21T12:46:27;8.50;;;7.80;;
14688;SDS011;7432;48.728;9.154;2022-08-21T12:48:59;7.38;;;6.75;;
14688;SDS011;7432;48.728;9.154;2022-08-21T12:51:31;7.28;;;6.78;;
14688;SDS011;7432;48.728;9.154;2022-08-21T12:54:04;7.57;;;6.97;;
14688;SDS011;7432;48.728;9.154;2022-08-21T12:56:32;8.55;;;7.22;;
14688;SDS011;7432;48.728;9.154;2022-08-21T12:59:02;7.80;;;7.10;;
14688;SDS011;7432;48.728;9.154;2022-08-21T13:01:30;7.45;;;6.70;;
14688;SDS011;7432;48.728;9.154;2022-08-21T13:04:00;7.95;;;7.18;;
14688;SDS011;7432;48.728;9.154;2022-08-21T13:06:32;7.90;;;7.20;;
14688;SDS011;7432;48.728;9.154;2022-08-21T13:09:04;7.80;;;7.18;;
14688;SDS011;7432;48.728;9.154;2022-08-21T13:11:33;8.35;;;7.55;;
14688;SDS011;7432;48.728;9.154;2022-08-21T13:14:00;8.10;;;7.50;;
14688;SDS011;7432;48.728;9.154;2022-08-21T13:16:29;8.40;;;7.18;;
14688;SDS011;7432;48.728;9.154;2022-08-21T13:18:58;7.85;;;6.90;;
14688;SDS011;7432;48.728;9.154;2022-08-21T13:21:29;8.07;;;7.28;;
14688;SDS011;7432;48.728;9.154;2022-08-21T13:24:15;8.27;;;7.40;;
14688;SDS011;7432;48.728;9.154;2022-08-21T13:26:44;7.47;;;6.80;;
14688;SDS011;7432;48.728;9.154;2022-08-21T13:29:12;7.47;;;6.78;;
14688;SDS011;7432;48.728;9.154;2022-08-21T13:31:46;7.80;;;7.10;;
14688;SDS011;7432;48.728;9.154;2022-08-21T13:34:14;8.27;;;7.47;;
14688;SDS011;7432;48.728;9.154;2022-08-21T13:36:42;7.60;;;7.00;;
14688;SDS011;7432;48.728;9.154;2022-08-21T13:39:12;8.02;;;7.20;;
14688;SDS011;7432;48.728;9.154;2022-08-21T13:41:43;7.60;;;7.00;;
14688;SDS011;7432;48.728;9.154;2022-08-21T13:44:15;7.20;;;6.70;;
14688;SDS011;7432;48.728;9.154;2022-08-21T13:46:44;7.82;;;7.03;;
14688;SDS011;7432;48.728;9.154;2022-08-21T13:49:13;7.55;;;6.85;;
14688;SDS011;7432;48.728;9.154;2022-08-21T13:51:42;7.63;;;7.03;;
14688;SDS011;7432;48.728;9.154;2022-08-21T13:54:16;7.55;;;6.85;;
14688;SDS011;7432;48.728;9.154;2022-08-21T13:56:50;7.57;;;6.80;;
14688;SDS011;7432;48.728;9.154;2022-08-21T13:59:23;7.40;;;6.70;;
14688;SDS011;7432;48.728;9.154;2022-08-21T14:01:52;7.78;;;7.07;;
14688;SDS011;7432;48.728;9.154;2022-08-21T14:04:25;7.63;;;6.90;;
14688;SDS011;7432;48.728;9.154;2022-08-21T14:06:56;8.60;;;7.80;;
14688;SDS011;7432;48.728;9.154;2022-08-21T14:09:25;7.90;;;7.00;;
14688;SDS011;7432;48.728;9.154;2022-08-21T14:11:56;7.65;;;7.00;;
14688;SDS011;7432;48.728;9.154;2022-08-21T14:14:26;7.60;;;6.90;;
14688;SDS011;7432;48.728;9.154;2022-08-21T14:16:56;7.53;;;6.93;;
14688;SDS011;7432;48.728;9.154;2022-08-21T14:19:25;7.88;;;7.07;;
14688;SDS011;7432;48.728;9.154;2022-08-21T14:21:54;7.55;;;6.95;;
14688;SDS011;7432;48.728;9.154;2022-08-21T14:24:28;7.32;;;6.82;;
14688;SDS011;7432;48.728;9.154;2022-08-21T14:26:58;7.90;;;7.20;;
14688;SDS011;7432;48.728;9.154;2022-08-21T14:29:32;8.93;;;7.47;;
14688;SDS011;7432;48.728;9.154;2022-08-21T14:32:10;7.43;;;6.90;;
14688;SDS011;7432;48.728;9.154;2022-08-21T14:34:39;8.10;;;7.40;;
14688;SDS011;7432;48.728;9.154;2022-08-21T14:37:05;7.97;;;7.28;;
14688;SDS011;7432;48.728;9.154;2022-08-21T14:39:32;7.15;;;6.55;;
14688;SDS011;7432;48.728;9.154;2022-08-21T14:42:00;7.95;;;6.78;;
14688;SDS011;7432;48.728;9.154;2022-08-21T14:44:27;7.20;;;6.60;;
14688;SDS011;7432;48.728;9.154;2022-08-21T14:46:54;7.90;;;7.20;;
14688;SDS011;7432;48.728;9.154;2022-08-21T14:49:21;7.88;;;7.10;;
14688;SDS011;7432;48.728;9.154;2022-08-21T14:51:47;7.75;;;7.05;;
14688;SDS011;7432;48.728;9.154;2022-08-21T14:54:18;7.63;;;7.03;;
14688;SDS011;7432;48.728;9.154;2022-08-21T14:56:44;7.20;;;6.70;;
14688;SDS011;7432;48.728;9.154;2022-08-21T14:59:12;7.30;;;6.80;;
14688;SDS011;7432;48.728;9.154;2022-08-21T15:01:39;7.72;;;7.00;;
14688;SDS011;7432;48.728;9.154;2022-08-21T15:04:05;7.50;;;6.80;;
14688;SDS011;7432;48.728;9.154;2022-08-21T15:06:32;7.28;;;6.68;;
14688;SDS011;7432;48.728;9.154;2022-08-21T15:08:58;7.65;;;6.82;;
14688;SDS011;7432;48.728;9.154;2022-08-21T15:11:26;7.45;;;6.72;;
14688;SDS011;7432;48.728;9.154;2022-08-21T15:13:54;8.27;;;6.65;;